Time;durP1;ratioP1;P1;durP2;ratioP2;P2;SDS_P1;SDS_P2;PMS_P1;PMS_P2;Temp;Humidity;BMP_temperature;BMP_pressure;BME280_temperature;BME280_humidity;BME280_pressure;Samples;Min_cycle;Max_cycle;Signal;HPM_P1;HPM_P2
2023/02/11 00:00:09;;;;;;;82.68;33.10;;;6.40;99.90;;;;;;5013631;28;20025;-73
2023/02/11 00:02:34;;;;;;;75.40;33.25;;;6.40;99.90;;;;;;5011903;28;20061;-73
2023/02/11 00:05:01;;;;;;;95.18;33.85;;;6.40;99.90;;;;;;5013939;28;20042;-71
2023/02/11 00:07:30;;;;;;;87.20;31.88;;;6.40;99.90;;;;;;5012586;28;20026;-72
2023/02/11 00:09:56;;;;;;;80.60;33.63;;;6.40;99.90;;;;;;5013589;28;20026;-71
2023/02/11 00:12:22;;;;;;;95.18;33.42;;;6.40;99.90;;;;;;5013337;28;20035;-73
2023/02/11 00:14:47;;;;;;;88.95;33.17;;;6.40;99.90;;;;;;5012446;28;20048;-74
2023/02/11 00:17:13;;;;;;;73.68;28.60;;;6.40;99.90;;;;;;5013242;28;20081;-73
2023/02/11 00:19:39;;;;;;;78.45;32.05;;;6.40;99.90;;;;;;5011624;28;20026;-73
2023/02/11 00:22:05;;;;;;;76.05;31.20;;;6.40;99.90;;;;;;5013165;28;20022;-72
2023/02/11 00:24:30;;;;;;;83.95;30.05;;;6.40;99.90;;;;;;5013724;28;20030;-73
2023/02/11 00:26:56;;;;;;;75.97;30.30;;;6.50;99.90;;;;;;5012362;28;20030;-73
2023/02/11 00:29:21;;;;;;;84.07;28.60;;;6.50;99.90;;;;;;5011690;28;20026;-74
2023/02/11 00:31:47;;;;;;;85.68;30.77;;;6.40;99.90;;;;;;5013382;28;20026;-72
2023/02/11 00:34:13;;;;;;;74.57;31.15;;;6.50;99.90;;;;;;5011657;28;20049;-71
2023/02/11 00:36:39;;;;;;;69.30;28.00;;;6.50;99.90;;;;;;5013116;28;20487;-73
2023/02/11 00:39:05;;;;;;;77.57;28.35;;;6.50;99.90;;;;;;5011977;28;20034;-75
2023/02/11 00:41:31;;;;;;;81.93;29.65;;;6.40;99.90;;;;;;5012466;28;20036;-75
2023/02/11 00:43:57;;;;;;;76.32;28.50;;;6.50;99.90;;;;;;5011950;28;20081;-72
2023/02/11 00:46:22;;;;;;;69.18;29.20;;;6.50;99.90;;;;;;5012046;28;20084;-73
2023/02/11 00:48:50;;;;;;;75.40;29.02;;;6.60;99.90;;;;;;5012219;28;20030;-72
2023/02/11 00:51:16;;;;;;;77.32;28.65;;;6.50;99.90;;;;;;5011198;28;20038;-72
2023/02/11 00:53:42;;;;;;;72.45;27.08;;;6.60;99.90;;;;;;5010965;28;20046;-73
2023/02/11 00:56:08;;;;;;;74.28;27.40;;;6.60;99.90;;;;;;5012079;28;20109;-72
2023/02/11 00:58:34;;;;;;;63.33;24.25;;;6.50;99.90;;;;;;5013134;28;20081;-73
2023/02/11 01:01:00;;;;;;;70.95;27.95;;;6.60;99.90;;;;;;5012214;28;20487;-73
2023/02/11 01:03:25;;;;;;;66.38;28.35;;;6.60;99.90;;;;;;5012544;28;20117;-73
2023/02/11 01:05:51;;;;;;;65.50;27.05;;;6.60;99.90;;;;;;5012625;28;20086;-72
2023/02/11 01:08:16;;;;;;;75.63;29.00;;;6.50;99.90;;;;;;5012327;28;20038;-73
2023/02/11 01:10:42;;;;;;;64.95;26.00;;;6.60;99.90;;;;;;5010866;28;20026;-75
2023/02/11 01:13:08;;;;;;;74.28;28.20;;;6.60;99.90;;;;;;5012341;28;20038;-71
2023/02/11 01:15:34;;;;;;;65.97;25.45;;;6.60;99.90;;;;;;5011230;28;20022;-73
2023/02/11 01:17:59;;;;;;;76.80;26.58;;;6.70;99.90;;;;;;5012679;28;20073;-73
2023/02/11 01:20:27;;;;;;;69.32;26.77;;;6.70;99.90;;;;;;5012191;28;20019;-73
2023/02/11 01:22:52;;;;;;;58.88;24.40;;;6.60;99.90;;;;;;5011810;28;20081;-72
2023/02/11 01:25:18;;;;;;;71.65;25.63;;;6.70;99.90;;;;;;5010241;28;20454;-73
2023/02/11 01:27:44;;;;;;;78.30;27.00;;;6.70;99.90;;;;;;5011977;28;20030;-72
2023/02/11 01:30:12;;;;;;;68.95;26.40;;;6.70;99.90;;;;;;5011078;28;20081;-73
2023/02/11 01:32:38;;;;;;;65.63;26.63;;;6.70;99.90;;;;;;5010478;28;20049;-72
2023/02/11 01:35:04;;;;;;;62.95;24.92;;;6.70;99.90;;;;;;5010593;28;20023;-70
2023/02/11 01:37:32;;;;;;;68.93;27.13;;;6.70;99.90;;;;;;5011528;28;20057;-71
2023/02/11 01:39:59;;;;;;;64.82;26.42;;;6.70;99.90;;;;;;5011950;28;20082;-72
2023/02/11 01:42:25;;;;;;;68.20;26.17;;;6.70;99.90;;;;;;5011378;28;20026;-73
2023/02/11 01:44:53;;;;;;;68.13;26.13;;;6.80;99.90;;;;;;5011580;28;20121;-76
2023/02/11 01:47:20;;;;;;;75.60;27.63;;;6.70;99.90;;;;;;5010397;28;20089;-73
2023/02/11 01:49:51;;;;;;;68.22;27.23;;;6.70;99.90;;;;;;5010910;28;20527;-73
2023/02/11 01:52:26;;;;;;;63.72;27.80;;;6.70;99.90;;;;;;5018586;28;20076;-72
2023/02/11 01:57:44;;;;;;;65.63;24.95;;;6.70;99.90;;;;;;5010606;28;20470;-72
2023/02/11 02:00:14;;;;;;;66.80;26.23;;;6.70;99.90;;;;;;5009855;28;20105;-73
2023/02/11 02:02:55;;;;;;;65.60;26.35;;;6.80;99.90;;;;;;5011482;28;20029;-71
2023/02/11 02:05:23;;;;;;;73.95;25.50;;;6.70;99.90;;;;;;5009302;28;20601;-72
2023/02/11 02:08:28;;;;;;;65.03;25.83;;;6.70;99.90;;;;;;5009636;28;20034;-72
2023/02/11 02:10:55;;;;;;;69.65;25.05;;;6.70;99.90;;;;;;5015716;28;20081;-72
2023/02/11 02:13:23;;;;;;;71.47;24.70;;;6.80;99.90;;;;;;5008753;28;20068;-73
2023/02/11 02:15:52;;;;;;;66.95;24.83;;;6.80;99.90;;;;;;5008779;28;20858;-72
2023/02/11 02:18:44;;;;;;;68.93;24.25;;;6.80;99.90;;;;;;5009350;28;20038;-71
2023/02/11 02:21:31;;;;;;;65.72;25.65;;;6.80;99.90;;;;;;5010603;28;20042;-72
2023/02/11 02:24:24;;;;;;;64.03;24.27;;;6.80;99.90;;;;;;5011004;28;20030;-74
2023/02/11 02:26:59;;;;;;;62.47;24.42;;;6.80;99.90;;;;;;5009559;28;20197;-73
2023/02/11 02:29:53;;;;;;;65.55;23.20;;;6.80;99.90;;;;;;5011075;28;20034;-75
2023/02/11 02:32:31;;;;;;;66.22;24.13;;;6.80;99.90;;;;;;5007963;28;20054;-75
2023/02/11 02:35:02;;;;;;;61.85;23.95;;;6.80;99.90;;;;;;5008541;28;20828;-74
2023/02/11 02:37:40;;;;;;;59.67;22.35;;;6.80;99.90;;;;;;5010234;28;20182;-72
2023/02/11 02:40:13;;;;;;;58.90;22.70;;;6.80;99.90;;;;;;5009704;28;20038;-73
2023/02/11 02:42:40;;;;;;;56.60;23.10;;;6.80;99.90;;;;;;5015216;28;20036;-73
2023/02/11 02:45:07;;;;;;;63.30;23.75;;;6.80;99.90;;;;;;5008995;28;20053;-74
2023/02/11 02:47:33;;;;;;;64.15;22.73;;;6.80;99.90;;;;;;5009849;28;20014;-73
2023/02/11 02:49:59;;;;;;;59.42;23.88;;;6.80;99.90;;;;;;5009013;28;20038;-73
2023/02/11 02:52:35;;;;;;;63.20;22.02;;;6.80;99.90;;;;;;5008320;28;20488;-73
2023/02/11 02:55:05;;;;;;;70.65;24.02;;;6.80;99.90;;;;;;5008300;28;20356;-72
2023/02/11 02:57:57;;;;;;;64.85;21.27;;;6.80;99.90;;;;;;5009634;28;20062;-73
2023/02/11 03:01:10;;;;;;;50.40;20.55;;;6.80;99.90;;;;;;5008023;28;20034;-74
2023/02/11 03:03:53;;;;;;;56.33;22.00;;;6.80;99.90;;;;;;5007776;28;20031;-74
2023/02/11 03:06:30;;;;;;;61.17;21.63;;;6.80;99.90;;;;;;5009685;28;20035;-74
2023/02/11 03:09:05;;;;;;;48.30;20.02;;;6.90;99.90;;;;;;5024555;28;20039;-73
2023/02/11 03:11:33;;;;;;;56.28;19.92;;;6.80;99.90;;;;;;5010101;28;20064;-72
2023/02/11 03:14:02;;;;;;;56.15;20.85;;;6.80;99.90;;;;;;5007907;28;20050;-73
2023/02/11 03:16:29;;;;;;;57.03;22.00;;;6.90;99.90;;;;;;5007471;28;20395;-73
2023/02/11 03:19:14;;;;;;;53.83;22.95;;;6.80;99.90;;;;;;5008307;28;20023;-70
2023/02/11 03:21:41;;;;;;;53.45;21.00;;;6.90;99.90;;;;;;5007691;28;21427;-70
2023/02/11 03:24:16;;;;;;;53.13;21.85;;;6.90;99.90;;;;;;5009099;28;20019;-72
2023/02/11 03:26:44;;;;;;;;;;;6.80;99.90;;;;;;5009961;28;20423;-72
2023/02/11 03:29:12;;;;;;;55.40;20.27;;;6.90;99.90;;;;;;5009432;28;19965;-72
2023/02/11 03:31:38;;;;;;;56.88;21.60;;;6.80;99.90;;;;;;5009552;28;20681;-72
2023/02/11 03:34:30;;;;;;;57.40;21.60;;;6.90;99.90;;;;;;5009809;28;20105;-70
2023/02/11 03:36:59;;;;;;;51.45;19.65;;;6.90;99.90;;;;;;4998884;28;20034;-73
2023/02/11 03:39:32;;;;;;;56.33;20.48;;;6.80;99.90;;;;;;5007589;28;20033;-70
2023/02/11 03:42:00;;;;;;;56.63;19.95;;;6.80;99.90;;;;;;5009048;28;20025;-71
2023/02/11 03:44:31;;;;;;;51.50;19.88;;;6.90;99.90;;;;;;5009696;28;20088;-74
2023/02/11 03:46:59;;;;;;;53.78;20.00;;;6.90;99.90;;;;;;5008477;28;20033;-73
2023/02/11 03:49:27;;;;;;;48.50;18.25;;;6.90;99.90;;;;;;5009195;28;20022;-70
2023/02/11 03:51:54;;;;;;;60.13;19.45;;;6.90;99.90;;;;;;5008891;28;20026;-71
2023/02/11 03:54:26;;;;;;;45.45;19.63;;;6.90;99.90;;;;;;5013106;28;20046;-71
2023/02/11 03:56:54;;;;;;;53.22;18.40;;;6.90;99.90;;;;;;5009190;28;20042;-72
2023/02/11 03:59:20;;;;;;;58.38;19.42;;;6.90;99.90;;;;;;5013956;28;20034;-72
2023/02/11 04:01:46;;;;;;;53.72;17.52;;;6.90;99.90;;;;;;5012411;28;20038;-70
2023/02/11 04:04:11;;;;;;;50.25;19.65;;;6.90;99.90;;;;;;5010642;28;20022;-71
2023/02/11 04:06:37;;;;;;;50.95;19.23;;;6.90;99.90;;;;;;5012866;28;20045;-73
2023/02/11 04:09:03;;;;;;;49.67;17.55;;;7.00;99.90;;;;;;5013105;28;20031;-75
2023/02/11 04:11:28;;;;;;;43.70;17.92;;;7.00;99.90;;;;;;5013190;28;20026;-75
2023/02/11 04:13:54;;;;;;;55.58;18.23;;;7.00;99.90;;;;;;5011347;28;20078;-72
2023/02/11 04:16:19;;;;;;;50.83;19.33;;;6.90;99.90;;;;;;5012300;28;20034;-71
2023/02/11 04:18:45;;;;;;;55.88;19.08;;;7.00;99.90;;;;;;5010479;28;20029;-71
2023/02/11 04:21:10;;;;;;;51.13;18.50;;;7.00;99.90;;;;;;5012335;28;20038;-72
2023/02/11 04:23:36;;;;;;;50.10;19.77;;;7.00;99.90;;;;;;5016846;28;20030;-73
2023/02/11 04:26:02;;;;;;;55.30;18.90;;;7.00;99.90;;;;;;5011288;28;20018;-72
2023/02/11 04:28:28;;;;;;;45.22;18.58;;;7.00;99.90;;;;;;5012411;28;20050;-71
2023/02/11 04:30:54;;;;;;;54.33;18.90;;;7.00;99.90;;;;;;5011255;28;20081;-72
2023/02/11 04:33:20;;;;;;;47.67;18.05;;;7.10;99.90;;;;;;5011855;28;20034;-71
2023/02/11 04:35:46;;;;;;;50.20;17.58;;;7.10;99.90;;;;;;5012207;28;20033;-71
2023/02/11 04:38:12;;;;;;;58.30;19.95;;;7.00;99.90;;;;;;5012585;28;20054;-73
2023/02/11 04:40:37;;;;;;;57.35;19.25;;;7.10;99.90;;;;;;5009818;28;20032;-74
2023/02/11 04:43:03;;;;;;;49.63;18.33;;;7.10;99.90;;;;;;5011891;28;20028;-73
2023/02/11 04:45:29;;;;;;;42.47;15.95;;;7.00;99.90;;;;;;5009396;28;20811;-72
2023/02/11 04:47:55;;;;;;;51.72;19.05;;;7.10;99.90;;;;;;5011319;28;20028;-73
2023/02/11 04:50:20;;;;;;;49.28;17.88;;;7.10;99.90;;;;;;5010510;28;20030;-73
2023/02/11 04:52:46;;;;;;;53.22;18.15;;;7.10;99.90;;;;;;5011879;28;20057;-72
2023/02/11 04:55:11;;;;;;;55.15;18.98;;;7.10;99.90;;;;;;5011595;28;20524;-72
2023/02/11 04:57:37;;;;;;;47.70;17.10;;;7.10;99.90;;;;;;5010837;28;20082;-72
2023/02/11 05:00:04;;;;;;;57.85;19.23;;;7.10;99.90;;;;;;5011284;28;20116;-74
2023/02/11 05:02:30;;;;;;;51.15;18.15;;;7.10;99.90;;;;;;5009745;28;20030;-71
2023/02/11 05:04:55;;;;;;;52.42;18.45;;;7.10;99.90;;;;;;5011845;28;20092;-73
2023/02/11 05:07:21;;;;;;;54.28;18.50;;;7.00;99.90;;;;;;5010160;28;20037;-74
2023/02/11 05:09:47;;;;;;;46.50;18.52;;;7.10;99.90;;;;;;5011363;28;20080;-72
2023/02/11 05:12:12;;;;;;;49.70;18.38;;;7.00;99.90;;;;;;5010459;28;20023;-73
2023/02/11 05:14:38;;;;;;;57.28;19.63;;;7.00;99.90;;;;;;5011061;28;20044;-74
2023/02/11 05:17:03;;;;;;;50.25;18.83;;;7.10;99.90;;;;;;5012415;28;20061;-73
2023/02/11 05:19:30;;;;;;;50.22;18.75;;;7.00;99.90;;;;;;5011263;28;20014;-73
2023/02/11 05:21:56;;;;;;;58.33;20.02;;;7.10;99.90;;;;;;5012748;28;20034;-73
2023/02/11 05:24:22;;;;;;;44.38;18.38;;;7.10;99.90;;;;;;5012238;28;20037;-73
2023/02/11 05:26:47;;;;;;;48.60;18.52;;;7.10;99.90;;;;;;5010906;28;20049;-73
2023/02/11 05:29:13;;;;;;;50.92;19.45;;;7.10;99.90;;;;;;5012117;28;20073;-72
2023/02/11 05:31:39;;;;;;;52.35;19.92;;;7.10;99.90;;;;;;5011645;28;20023;-71
2023/02/11 05:34:04;;;;;;;56.00;18.95;;;7.10;99.90;;;;;;5011882;28;20039;-72
2023/02/11 05:36:30;;;;;;;51.75;19.35;;;7.10;99.90;;;;;;5010689;28;20041;-73
2023/02/11 05:38:56;;;;;;;55.25;19.38;;;7.10;99.90;;;;;;5010734;28;20050;-70
2023/02/11 05:41:21;;;;;;;54.78;19.48;;;7.10;99.90;;;;;;5011854;28;20471;-73
2023/02/11 05:43:51;;;;;;;48.72;19.15;;;7.10;99.90;;;;;;5012160;28;20022;-73
2023/02/11 05:46:17;;;;;;;53.15;19.48;;;7.10;99.90;;;;;;5011432;28;20061;-74
2023/02/11 05:48:43;;;;;;;51.92;20.25;;;7.10;99.90;;;;;;5010765;28;20104;-72
2023/02/11 05:51:08;;;;;;;56.55;20.25;;;7.10;99.90;;;;;;5011983;28;20033;-72
2023/02/11 05:53:34;;;;;;;56.00;19.98;;;7.10;99.90;;;;;;5011162;28;20046;-73
2023/02/11 05:56:00;;;;;;;53.47;18.58;;;7.10;99.90;;;;;;5011936;28;20022;-72
2023/02/11 05:58:26;;;;;;;53.22;18.85;;;7.10;99.90;;;;;;5010585;28;20042;-72
2023/02/11 06:00:51;;;;;;;54.90;19.63;;;7.10;99.90;;;;;;5009397;28;20022;-71
2023/02/11 06:03:17;;;;;;;49.95;19.88;;;7.10;99.90;;;;;;5010507;28;20030;-71
2023/02/11 06:05:44;;;;;;;47.15;19.05;;;7.10;99.90;;;;;;5010288;28;20037;-73
2023/02/11 06:08:10;;;;;;;51.33;20.15;;;7.10;99.90;;;;;;5011876;28;20026;-72
2023/02/11 06:10:35;;;;;;;69.78;19.50;;;7.00;99.90;;;;;;5012332;28;20033;-73
2023/02/11 06:13:01;;;;;;;58.72;20.15;;;7.00;99.90;;;;;;5011752;28;20077;-71
2023/02/11 06:15:27;;;;;;;59.40;20.92;;;7.10;99.90;;;;;;5011744;28;20487;-70
2023/02/11 06:17:52;;;;;;;50.95;21.48;;;7.00;99.90;;;;;;5009784;28;20030;-72
2023/02/11 06:20:18;;;;;;;59.20;20.90;;;7.10;99.90;;;;;;5010013;28;20073;-71
2023/02/11 06:22:45;;;;;;;55.47;21.70;;;7.00;99.90;;;;;;5011323;28;20026;-71
2023/02/11 06:25:11;;;;;;;57.92;20.80;;;7.00;99.90;;;;;;5010612;28;20033;-73
2023/02/11 06:27:37;;;;;;;58.50;20.67;;;7.10;99.90;;;;;;5011222;28;20052;-72
2023/02/11 06:30:04;;;;;;;61.30;21.73;;;7.10;99.90;;;;;;5011379;28;20042;-72
2023/02/11 06:32:30;;;;;;;61.30;22.92;;;7.00;99.90;;;;;;5010918;28;20054;-71
2023/02/11 06:34:56;;;;;;;65.40;21.58;;;7.00;99.90;;;;;;5009757;28;20030;-71
2023/02/11 06:37:21;;;;;;;69.72;21.83;;;7.00;99.90;;;;;;5007499;28;20034;-71
2023/02/11 06:39:47;;;;;;;60.72;24.02;;;7.00;99.90;;;;;;5008919;28;20018;-70
2023/02/11 06:42:12;;;;;;;66.53;22.95;;;7.00;99.90;;;;;;5008905;28;20049;-73
2023/02/11 06:44:38;;;;;;;73.05;23.70;;;7.00;99.90;;;;;;5010973;28;20090;-70
2023/02/11 06:47:04;;;;;;;62.88;23.05;;;7.00;99.90;;;;;;5010569;28;20018;-71
2023/02/11 06:49:29;;;;;;;70.07;22.92;;;7.00;99.90;;;;;;5004388;28;20172;-71
2023/02/11 06:51:55;;;;;;;63.08;24.15;;;7.00;99.90;;;;;;5006854;28;20034;-71
2023/02/11 06:54:20;;;;;;;57.80;21.95;;;7.00;99.90;;;;;;5009668;28;20060;-70
2023/02/11 06:56:46;;;;;;;55.65;21.75;;;7.10;99.90;;;;;;5008422;28;20033;-71
2023/02/11 06:59:17;;;;;;;64.70;22.38;;;7.10;99.90;;;;;;5008053;28;20050;-71
2023/02/11 07:01:43;;;;;;;57.72;21.75;;;7.10;99.90;;;;;;5007456;28;20057;-69
2023/02/11 07:04:09;;;;;;;64.28;22.73;;;7.10;99.90;;;;;;5009030;28;20045;-70
2023/02/11 07:06:36;;;;;;;65.18;23.40;;;7.10;99.90;;;;;;5010770;28;20619;-72
2023/02/11 07:09:03;;;;;;;55.83;22.05;;;7.10;99.90;;;;;;5009614;28;20054;-72
2023/02/11 07:11:29;;;;;;;67.80;24.20;;;7.10;99.90;;;;;;5008611;28;20025;-70
2023/02/11 07:13:59;;;;;;;63.17;23.60;;;7.10;99.90;;;;;;5009970;28;20193;-72
2023/02/11 07:16:25;;;;;;;64.97;25.38;;;7.10;99.90;;;;;;5013676;28;20499;-69
2023/02/11 07:18:51;;;;;;;66.68;24.02;;;7.10;99.90;;;;;;5009578;28;20030;-70
2023/02/11 07:21:19;;;;;;;63.22;23.42;;;7.20;99.90;;;;;;5009869;28;20052;-73
2023/02/11 07:23:47;;;;;;;61.55;23.45;;;7.20;99.90;;;;;;5007035;28;20037;-69
2023/02/11 07:26:15;;;;;;;59.22;22.77;;;7.20;99.90;;;;;;5010186;28;20030;-71
2023/02/11 07:28:41;;;;;;;63.45;23.17;;;7.20;99.90;;;;;;5006485;28;20134;-70
2023/02/11 07:31:12;;;;;;;71.05;24.52;;;7.20;99.90;;;;;;5009222;28;20026;-72
2023/02/11 07:33:39;;;;;;;65.80;24.58;;;7.20;99.90;;;;;;5009460;28;20038;-70
2023/02/11 07:36:06;;;;;;;66.20;25.17;;;7.20;99.90;;;;;;5013194;28;20060;-71
2023/02/11 07:38:32;;;;;;;69.18;25.17;;;7.20;99.90;;;;;;5020353;28;20115;-71
2023/02/11 07:41:03;;;;;;;63.35;25.55;;;7.30;99.90;;;;;;5014332;28;20025;-71
2023/02/11 07:43:30;;;;;;;70.28;26.58;;;7.30;99.90;;;;;;5007929;28;20048;-71
2023/02/11 07:45:56;;;;;;;67.47;25.95;;;7.30;99.90;;;;;;5012297;28;20036;-69
2023/02/11 07:48:21;;;;;;;65.00;25.60;;;7.20;99.90;;;;;;5012454;28;20053;-71
2023/02/11 07:50:47;;;;;;;60.90;22.65;;;7.30;99.90;;;;;;5012168;28;20030;-74
2023/02/11 07:53:13;;;;;;;69.95;26.13;;;7.30;99.90;;;;;;5012044;28;20038;-71
2023/02/11 07:55:38;;;;;;;66.38;26.00;;;7.30;99.90;;;;;;5013961;28;20022;-73
2023/02/11 07:58:04;;;;;;;77.15;26.20;;;7.30;99.90;;;;;;5013980;28;20069;-72
2023/02/11 08:00:29;;;;;;;68.55;25.75;;;7.30;99.90;;;;;;5014238;28;20026;-74
2023/02/11 08:03:02;;;;;;;71.55;24.25;;;7.30;99.90;;;;;;5014162;28;20025;-71
2023/02/11 08:05:29;;;;;;;73.85;26.55;;;7.30;99.90;;;;;;5010293;28;20182;-72
2023/02/11 08:07:54;;;;;;;73.35;25.60;;;7.30;99.90;;;;;;5009899;28;20053;-71
2023/02/11 08:10:20;;;;;;;69.63;25.63;;;7.30;99.90;;;;;;5012105;28;20041;-72
2023/02/11 08:12:46;;;;;;;70.15;25.98;;;7.30;99.90;;;;;;5013859;28;20064;-71
2023/02/11 08:15:12;;;;;;;79.22;27.88;;;7.30;99.90;;;;;;5011532;28;20042;-70
2023/02/11 08:17:37;;;;;;;71.13;26.52;;;7.30;99.90;;;;;;5010082;28;20046;-73
2023/02/11 08:20:05;;;;;;;74.60;25.98;;;7.30;99.90;;;;;;5012203;28;20037;-71
2023/02/11 08:22:32;;;;;;;78.78;26.52;;;7.40;99.90;;;;;;5011347;28;20057;-73
2023/02/11 08:24:57;;;;;;;73.57;25.85;;;7.30;99.90;;;;;;5015288;28;20034;-73
2023/02/11 08:27:25;;;;;;;63.40;24.67;;;7.30;99.90;;;;;;5012624;28;20822;-73
2023/02/11 08:29:54;;;;;;;72.20;26.38;;;7.40;99.90;;;;;;5011457;28;20034;-72
2023/02/11 08:32:20;;;;;;;73.45;26.75;;;7.40;99.90;;;;;;5011996;28;20551;-70
2023/02/11 08:34:50;;;;;;;69.47;26.15;;;7.40;99.90;;;;;;5013163;28;20057;-70
2023/02/11 08:37:16;;;;;;;66.57;25.05;;;7.40;99.90;;;;;;5012957;28;20049;-72
2023/02/11 08:39:42;;;;;;;73.40;26.52;;;7.40;99.90;;;;;;5011746;28;20069;-73
2023/02/11 08:42:07;;;;;;;72.80;27.77;;;7.40;99.90;;;;;;5013382;28;20026;-73
2023/02/11 08:44:33;;;;;;;70.78;26.80;;;7.40;99.90;;;;;;5011539;28;20030;-72
2023/02/11 08:46:58;;;;;;;66.45;24.42;;;7.50;99.90;;;;;;5012374;28;20061;-70
2023/02/11 08:49:24;;;;;;;69.07;25.55;;;7.40;99.90;;;;;;5013382;28;20454;-73
2023/02/11 08:51:50;;;;;;;69.93;24.40;;;7.40;99.90;;;;;;5013040;28;20045;-73
2023/02/11 08:54:15;;;;;;;70.10;23.95;;;7.50;99.90;;;;;;5011809;28;20042;-74
2023/02/11 08:56:41;;;;;;;70.10;25.75;;;7.50;99.90;;;;;;5013073;28;20030;-74
2023/02/11 08:59:10;;;;;;;60.10;25.17;;;7.50;99.90;;;;;;5012900;28;20038;-73
2023/02/11 09:01:36;;;;;;;63.33;25.13;;;7.50;99.90;;;;;;5013037;28;20029;-73
2023/02/11 09:04:01;;;;;;;64.35;25.77;;;7.50;99.90;;;;;;5012462;28;20030;-72
2023/02/11 09:06:27;;;;;;;63.33;24.13;;;7.60;99.90;;;;;;5011716;28;20037;-74
2023/02/11 09:08:55;;;;;;;58.38;23.70;;;7.50;99.90;;;;;;5010909;28;20490;-72
2023/02/11 09:11:26;;;;;;;66.65;22.08;;;7.60;99.90;;;;;;5011908;28;20030;-73
2023/02/11 09:13:52;;;;;;;63.00;24.10;;;7.60;99.90;;;;;;5011991;28;20038;-74
2023/02/11 09:16:21;;;;;;;59.75;22.58;;;7.60;99.90;;;;;;5010769;28;20025;-74
2023/02/11 09:18:47;;;;;;;58.28;22.50;;;7.60;99.90;;;;;;5018530;28;20030;-74
2023/02/11 09:21:14;;;;;;;60.55;23.00;;;7.60;99.90;;;;;;5008649;28;20050;-74
2023/02/11 09:23:42;;;;;;;60.75;23.77;;;7.60;99.90;;;;;;4999959;28;20026;-74
2023/02/11 09:26:11;;;;;;;51.38;22.42;;;7.60;99.90;;;;;;5010648;28;20089;-73
2023/02/11 09:28:37;;;;;;;55.08;22.98;;;7.60;99.90;;;;;;5010282;28;20018;-75
2023/02/11 09:31:08;;;;;;;57.38;23.67;;;7.60;99.90;;;;;;5005039;28;20029;-73
2023/02/11 09:33:34;;;;;;;60.83;23.58;;;7.60;99.90;;;;;;5008671;28;20092;-76
2023/02/11 09:36:04;;;;;;;61.55;23.45;;;7.70;99.90;;;;;;5009771;28;20061;-72
2023/02/11 09:38:31;;;;;;;62.60;23.52;;;7.60;99.90;;;;;;5010476;28;20026;-74
2023/02/11 09:40:57;;;;;;;56.03;22.48;;;7.70;99.90;;;;;;5010342;28;20053;-71
2023/02/11 09:43:31;;;;;;;63.40;21.50;;;7.70;99.90;;;;;;5007925;28;20034;-71
2023/02/11 09:45:56;;;;;;;;;;;7.70;99.90;;;;;;5008669;28;20117;-71
2023/02/11 09:48:22;;;;;;;54.97;22.73;;;7.70;99.90;;;;;;5010901;28;19909;-73
2023/02/11 09:51:00;;;;;;;57.92;22.33;;;7.70;99.90;;;;;;5008388;28;20024;-74
2023/02/11 09:53:28;;;;;;;58.35;23.55;;;7.70;99.90;;;;;;5018831;28;20034;-74
2023/02/11 09:56:11;;;;;;;65.03;23.48;;;7.70;99.90;;;;;;5011181;28;20022;-70
2023/02/11 09:58:40;;;;;;;54.92;22.60;;;7.70;99.90;;;;;;5011471;28;20050;-73
2023/02/11 10:01:32;;;;;;;69.28;23.92;;;7.70;99.90;;;;;;5013340;28;20344;-73
2023/02/11 10:04:17;;;;;;;54.05;22.65;;;7.70;99.90;;;;;;5011819;28;20034;-74
2023/02/11 10:06:56;;;;;;;60.72;23.13;;;7.70;99.90;;;;;;5009016;28;20097;-71
2023/02/11 10:09:32;;;;;;;60.17;22.50;;;7.70;99.90;;;;;;5010252;28;20041;-74
2023/02/11 10:12:08;;;;;;;68.32;24.55;;;7.70;99.90;;;;;;5008233;28;20034;-74
2023/02/11 10:14:49;;;;;;;61.45;23.30;;;7.80;99.90;;;;;;5006907;28;20042;-74
2023/02/11 10:17:45;;;;;;;64.15;23.30;;;7.80;99.90;;;;;;5008392;28;20363;-73
2023/02/11 10:20:29;;;;;;;59.08;22.38;;;7.90;99.90;;;;;;5009539;28;20060;-72
2023/02/11 10:23:00;;;;;;;61.23;23.77;;;7.80;99.90;;;;;;5009165;28;20026;-72
2023/02/11 10:25:35;;;;;;;64.20;23.80;;;7.90;99.90;;;;;;5009777;28;20435;-72
2023/02/11 10:28:19;;;;;;;62.25;24.10;;;7.80;99.90;;;;;;5007114;28;20062;-74
2023/02/11 10:31:10;;;;;;;65.82;22.88;;;7.80;99.90;;;;;;5009174;28;20077;-74
2023/02/11 10:33:48;;;;;;;69.63;22.73;;;7.90;99.90;;;;;;5009052;28;20047;-73
2023/02/11 10:36:17;;;;;;;66.72;23.77;;;7.90;99.90;;;;;;5011411;28;20026;-72
2023/02/11 10:38:43;;;;;;;56.63;23.25;;;7.90;99.90;;;;;;5005704;28;20513;-74
2023/02/11 10:41:15;;;;;;;53.47;23.98;;;7.90;99.90;;;;;;5008316;28;20086;-73
2023/02/11 10:43:42;;;;;;;59.67;22.10;;;7.90;99.90;;;;;;5009228;28;20450;-71
2023/02/11 10:46:20;;;;;;;61.17;23.33;;;7.90;99.90;;;;;;5011066;28;20026;-73
2023/02/11 10:48:52;;;;;;;61.03;24.08;;;7.90;99.90;;;;;;5011368;28;20110;-71
2023/02/11 10:51:27;;;;;;;53.28;21.55;;;7.90;99.90;;;;;;5011396;28;20033;-71
2023/02/11 10:54:18;;;;;;;56.10;23.27;;;7.90;99.90;;;;;;5025102;28;20100;-74
2023/02/11 10:56:49;;;;;;;57.35;24.15;;;8.00;99.90;;;;;;5006483;28;20038;-71
2023/02/11 10:59:29;;;;;;;56.63;21.50;;;8.00;99.90;;;;;;5010468;28;20114;-73
2023/02/11 11:02:00;;;;;;;65.32;22.85;;;8.00;99.90;;;;;;5009415;28;20030;-72
2023/02/11 11:04:29;;;;;;;60.47;23.20;;;8.00;99.90;;;;;;5010840;28;20117;-73
2023/02/11 11:07:12;;;;;;;66.43;24.58;;;8.00;99.90;;;;;;5010756;28;20041;-74
2023/02/11 11:09:49;;;;;;;59.08;22.70;;;8.00;99.90;;;;;;5010773;28;20036;-72
2023/02/11 11:12:36;;;;;;;67.32;24.05;;;8.00;99.90;;;;;;5013026;28;20045;-74
2023/02/11 11:15:20;;;;;;;66.03;25.33;;;8.00;99.90;;;;;;5011227;28;20038;-73
2023/02/11 11:17:47;;;;;;;69.00;24.93;;;7.90;99.90;;;;;;5013845;28;20057;-73
2023/02/11 11:20:27;;;;;;;65.53;25.48;;;7.90;99.90;;;;;;5013139;28;20506;-72
2023/02/11 11:23:16;;;;;;;63.28;24.38;;;8.00;99.90;;;;;;5013298;28;20030;-72
2023/02/11 11:25:45;;;;;;;72.15;25.30;;;8.00;99.90;;;;;;5014411;28;20038;-72
2023/02/11 11:28:25;;;;;;;58.88;23.80;;;7.90;99.90;;;;;;5012893;28;20034;-73
2023/02/11 11:30:53;;;;;;;70.03;24.55;;;7.90;99.90;;;;;;5014783;28;20038;-72
2023/02/11 11:33:23;;;;;;;59.60;23.02;;;7.90;99.90;;;;;;5013659;28;20097;-71
2023/02/11 11:36:09;;;;;;;64.75;23.67;;;7.90;99.90;;;;;;5021132;28;20022;-72
2023/02/11 11:38:41;;;;;;;58.50;21.08;;;8.00;99.90;;;;;;5015068;28;20037;-73
2023/02/11 11:41:18;;;;;;;66.68;21.85;;;8.00;99.90;;;;;;5014955;28;20452;-71
2023/02/11 11:43:55;;;;;;;74.40;22.17;;;8.00;99.90;;;;;;5013465;28;20061;-73
2023/02/11 11:46:28;;;;;;;56.72;20.85;;;8.00;99.90;;;;;;5014099;28;20022;-72
2023/02/11 11:49:02;;;;;;;62.40;20.88;;;8.10;99.90;;;;;;5014797;28;20093;-70
2023/02/11 11:51:30;;;;;;;59.63;21.33;;;8.20;99.90;;;;;;5021673;28;20030;-72
2023/02/11 11:54:01;;;;;;;72.18;21.92;;;8.10;99.90;;;;;;5014150;28;20034;-72
2023/02/11 11:56:37;;;;;;;52.53;19.77;;;8.10;99.90;;;;;;5019276;28;20065;-72
2023/02/11 11:59:12;;;;;;;49.80;18.92;;;8.20;99.90;;;;;;5014282;28;20046;-72
2023/02/11 12:01:41;;;;;;;56.40;20.75;;;8.20;99.90;;;;;;5012108;28;20061;-73
2023/02/11 12:04:37;;;;;;;61.65;21.02;;;8.20;99.90;;;;;;5013352;28;20022;-73
2023/02/11 12:07:21;;;;;;;48.15;18.45;;;8.20;99.90;;;;;;5014546;28;20026;-72
2023/02/11 12:10:14;;;;;;;51.17;19.00;;;8.30;99.90;;;;;;5010339;28;20044;-72
2023/02/11 12:12:55;;;;;;;48.58;19.58;;;8.30;99.90;;;;;;5012132;28;20038;-72
2023/02/11 12:15:33;;;;;;;42.42;18.20;;;8.30;99.90;;;;;;5014212;28;20045;-71
2023/02/11 12:18:39;;;;;;;51.67;18.48;;;8.30;99.90;;;;;;5014432;28;20096;-72
2023/02/11 12:21:16;;;;;;;56.38;17.98;;;8.30;99.90;;;;;;5020023;28;20026;-71
2023/02/11 12:23:50;;;;;;;56.28;18.25;;;8.30;99.90;;;;;;5013858;28;20046;-73
2023/02/11 12:26:32;;;;;;;60.53;18.30;;;8.30;99.90;;;;;;5014230;28;20026;-73
2023/02/11 12:29:01;;;;;;;59.67;17.40;;;8.30;99.90;;;;;;5013667;28;20033;-73
2023/02/11 12:31:47;;;;;;;59.78;19.65;;;8.30;99.90;;;;;;5019731;28;20026;-72
2023/02/11 12:34:39;;;;;;;57.25;17.13;;;8.30;99.90;;;;;;5013874;28;20461;-72
2023/02/11 12:37:21;;;;;;;51.35;19.20;;;8.30;99.90;;;;;;5013191;28;20023;-71
2023/02/11 12:39:56;;;;;;;59.53;19.15;;;8.30;99.90;;;;;;5012430;28;20034;-71
2023/02/11 12:45:57;;;;;;;63.92;19.55;;;8.40;99.90;;;;;;5013563;28;20061;-72
2023/02/11 12:48:35;;;;;;;54.25;19.25;;;8.40;99.90;;;;;;5011828;28;20038;-73
2023/02/11 12:51:13;;;;;;;62.20;17.88;;;8.50;99.90;;;;;;5010861;28;20034;-72
2023/02/11 12:53:44;;;;;;;60.08;18.20;;;8.50;99.90;;;;;;5013300;28;20391;-73
2023/02/11 12:56:41;;;;;;;60.05;18.45;;;8.50;99.90;;;;;;5007966;28;20082;-72
2023/02/11 12:59:26;;;;;;;52.33;18.38;;;8.50;99.90;;;;;;5009276;28;20715;-73